Svitzer Stanlow — MLNF7 — position and weather

sailwx.info

Track history (hours):
 
Tides and Currents Weather Stations Pressure Air Temp Water Temp Dewpoint Dewpoint Depression Visibility Wind Speed Wind Dir Waves Ship Positions

Svitzer Stanlow

Last reported at 2014-Dec-18 00:28 UTC. Time now 2014-Dec-18 00:56 UTC.
Position N 53°25' W 003°00'.

Length 39 m.

Type: Tug. MMSI: 235010620.

Date/timePositionNaut miles runAvg speedWind from/ knotsBaromVisibWave heightAir tempDewpointWater temp
2014-Dec-18 00:28N 53°25' W 003°00'0 0.0
2014-Dec-17 23:28N 53°25' W 003°00'0 0.0
2014-Dec-17 22:28N 53°25' W 003°00'0 0.0
2014-Dec-17 21:28N 53°25' W 003°00'0 0.0
2014-Dec-17 20:28N 53°25' W 003°00'0 0.0
2014-Dec-17 19:28N 53°25' W 003°00'0 0.0
2014-Dec-17 18:22N 53°25' W 003°00'0 0.0
2014-Dec-17 17:28N 53°25' W 003°00'0 0.0
2014-Dec-17 16:34N 53°25' W 003°00'0 0.0
2014-Dec-17 15:33N 53°25' W 003°00'0 0.0
2014-Dec-17 14:27N 53°25' W 003°00'0 0.0
2014-Dec-17 13:33N 53°25' W 003°00'0 0.0
2014-Dec-17 12:27N 53°25' W 003°00'0 0.0
2014-Dec-17 11:33N 53°25' W 003°00'0 0.0
2014-Dec-17 10:33N 53°25' W 003°00'0 0.0
2014-Dec-17 09:33N 53°25' W 003°00'0 0.0
2014-Dec-17 08:33N 53°25' W 003°00'0 0.0
2014-Dec-17 07:33N 53°25' W 003°00'0 0.0
2014-Dec-17 06:21N 53°25' W 003°00'0 0.0
2014-Dec-17 05:33N 53°25' W 003°00'0 0.0
2014-Dec-17 04:33N 53°25' W 003°00'0 0.0
2014-Dec-17 03:33N 53°25' W 003°00'0 0.0
2014-Dec-17 02:33N 53°25' W 003°00'0 0.0
2014-Dec-17 01:15N 53°25' W 003°00'0 0.0
2014-Dec-17 00:33N 53°25' W 003°00'0 0.0
2014-Dec-16 23:33N 53°25' W 003°00'0 0.0
2014-Dec-16 22:33N 53°25' W 003°00'0 0.0
2014-Dec-16 21:33N 53°25' W 003°00'0 0.0
2014-Dec-16 20:33N 53°25' W 003°00'0 0.0
2014-Dec-16 19:33N 53°25' W 003°00'0 0.0
2014-Dec-16 18:33N 53°25' W 003°00'0 0.0
2014-Dec-16 17:33N 53°25' W 003°00'0 0.0
2014-Dec-16 16:27N 53°25' W 003°00'0 0.0
2014-Dec-16 15:33N 53°25' W 003°00'0 0.0
2014-Dec-16 14:27N 53°25' W 003°00'0 0.0
2014-Dec-16 13:33N 53°25' W 003°00'0 0.0
2014-Dec-16 12:33N 53°25' W 003°00'0 0.0
2014-Dec-16 11:33N 53°25' W 003°00'0 0.0
2014-Dec-16 10:33N 53°25' W 003°00'0 0.0
2014-Dec-16 09:33N 53°25' W 003°00'0 0.0
2014-Dec-16 08:27N 53°25' W 003°00'0 0.0
2014-Dec-16 07:33N 53°25' W 003°00'0 0.0
2014-Dec-16 06:33N 53°25' W 003°00'0 0.0
2014-Dec-16 05:33N 53°25' W 003°00'0 0.0
2014-Dec-16 04:33N 53°25' W 003°00'0 0.0
2014-Dec-16 03:27N 53°25' W 003°00'0 0.0
2014-Dec-16 02:15N 53°25' W 003°00'0 0.0
2014-Dec-15 23:32N 53°25' W 003°00'0 0.0
2014-Dec-15 22:26N 53°25' W 003°00'0 0.0
2014-Dec-15 21:32N 53°25' W 003°00'0 0.0
2014-Dec-15 20:32N 53°25' W 003°00'0 0.0
2014-Dec-15 19:32N 53°25' W 003°00'0 0.0
2014-Dec-15 18:32N 53°25' W 003°00'0 0.0
2014-Dec-15 17:32N 53°25' W 003°00'0 0.0
2014-Dec-15 16:32N 53°25' W 003°00'0 0.0
2014-Dec-15 15:32N 53°25' W 003°00'0 0.0
2014-Dec-15 14:32N 53°25' W 003°00'0 0.0
2014-Dec-15 13:32N 53°25' W 003°00'0 0.0
2014-Dec-15 12:32N 53°25' W 003°00'0 0.0
2014-Dec-15 11:32N 53°25' W 003°00'0 0.0
2014-Dec-15 10:32N 53°25' W 003°00'0 0.0
2014-Dec-15 09:32N 53°25' W 003°00'0 0.0
2014-Dec-15 08:32N 53°25' W 003°00'0 0.0
2014-Dec-15 07:32N 53°25' W 003°00'2 1.7
2014-Dec-15 06:31N 53°27' W 003°01'0 0.1
2014-Dec-15 05:31N 53°27' W 003°01'0 0.2
2014-Dec-15 04:31N 53°27' W 003°01'3 2.7
2014-Dec-15 03:33N 53°29' W 003°04'2 2.3
2014-Dec-15 02:29N 53°27' W 003°01'2 1.7
2014-Dec-15 01:33N 53°25' W 003°00'0 0.0
2014-Dec-15 00:33N 53°25' W 003°00'0 0.0
2014-Dec-14 23:27N 53°25' W 003°00'0 0.0
2014-Dec-14 22:33N 53°25' W 003°00'0 0.0
2014-Dec-14 21:21N 53°25' W 003°00'0 0.0
2014-Dec-14 20:33N 53°25' W 003°00'0 0.0
2014-Dec-14 19:33N 53°25' W 003°00'0 0.0
2014-Dec-14 18:33N 53°25' W 003°00'1 1.0
2014-Dec-14 17:33N 53°26' W 003°00'1 1.1
2014-Dec-14 16:33N 53°27' W 003°01'0 0.3
2014-Dec-14 15:31N 53°27' W 003°01'2 1.8
2014-Dec-14 14:30N 53°25' W 003°00'0 0.0
2014-Dec-14 13:30N 53°25' W 003°00'0 0.0
2014-Dec-14 12:30N 53°25' W 003°00'0 0.0
2014-Dec-14 11:30N 53°25' W 003°00'0 0.0
2014-Dec-14 10:30N 53°25' W 003°00'0 0.0
2014-Dec-14 09:30N 53°25' W 003°00'0 0.0
2014-Dec-14 08:30N 53°25' W 003°00'0 0.0
2014-Dec-14 07:30N 53°25' W 003°00'0 0.0
2014-Dec-14 06:30N 53°25' W 003°00'0 0.0
2014-Dec-14 05:24N 53°25' W 003°00'0 0.0
2014-Dec-14 04:30N 53°25' W 003°00'0 0.0
2014-Dec-14 03:30N 53°25' W 003°00'0 0.0
2014-Dec-14 02:30N 53°25' W 003°00'0 0.0
2014-Dec-14 01:30N 53°25' W 003°00'0 0.0
2014-Dec-14 00:30N 53°25' W 003°00'0 0.0
2014-Dec-13 23:24N 53°25' W 003°00'0 0.0
2014-Dec-13 22:30N 53°25' W 003°00'0 0.0
2014-Dec-13 21:18N 53°25' W 003°00'0 0.0
2014-Dec-13 20:29N 53°25' W 003°00'0 0.0
2014-Dec-13 19:29N 53°25' W 003°00'0 0.0
2014-Dec-13 18:29N 53°25' W 003°00'0 0.0
2014-Dec-13 17:29N 53°25' W 003°00'0 0.0
2014-Dec-13 16:29N 53°25' W 003°00'0 0.0
2014-Dec-13 15:29N 53°25' W 003°00'0 0.0
2014-Dec-13 14:29N 53°25' W 003°00'0 0.0
2014-Dec-13 13:29N 53°25' W 003°00'1 1.0
2014-Dec-13 12:30N 53°26' W 003°01'2 1.9
2014-Dec-13 11:33N 53°25' W 003°00'2 1.9
2014-Dec-13 10:30N 53°23' W 002°60'0 0.1
2014-Dec-13 09:29N 53°23' W 002°60'0 0.0
2014-Dec-13 08:23N 53°23' W 002°60'0 0.0
2014-Dec-13 07:29N 53°23' W 002°60'0 0.0
2014-Dec-13 06:29N 53°23' W 002°60'0 0.0
2014-Dec-13 05:29N 53°23' W 002°60'0 0.0
2014-Dec-13 04:29N 53°23' W 002°60'0 0.0
2014-Dec-13 03:29N 53°23' W 002°60'0 0.0
2014-Dec-13 02:29N 53°23' W 002°60'0 0.0
2014-Dec-13 01:29N 53°23' W 002°60'0 0.0
2014-Dec-13 00:29N 53°23' W 002°60'0 0.0
2014-Dec-12 23:29N 53°23' W 002°60'0 0.1
2014-Dec-12 22:32N 53°23' W 002°60'0 0.0
2014-Dec-12 21:32N 53°23' W 002°60'0 0.0
2014-Dec-12 20:32N 53°23' W 002°60'0 0.0
2014-Dec-12 19:32N 53°23' W 002°60'0 0.0
2014-Dec-12 18:32N 53°23' W 002°60'0 0.0
2014-Dec-12 17:32N 53°23' W 002°60'0 0.0
2014-Dec-12 16:32N 53°23' W 002°60'0 0.0
2014-Dec-12 15:32N 53°23' W 002°60'0 0.0
2014-Dec-12 14:32N 53°23' W 002°60'0 0.0
2014-Dec-12 13:32N 53°23' W 002°60'0 0.0
2014-Dec-12 12:32N 53°23' W 002°60'0 0.0
2014-Dec-12 11:32N 53°23' W 002°60'0 0.1
2014-Dec-12 10:26N 53°23' W 002°60'0 0.1
2014-Dec-12 09:32N 53°23' W 002°60'0 0.0
2014-Dec-12 08:32N 53°23' W 002°60'0 0.1
2014-Dec-12 07:31N 53°23' W 002°60'0 0.0
2014-Dec-12 06:31N 53°23' W 002°60'0 0.0
2014-Dec-12 05:31N 53°23' W 002°60'0 0.0
2014-Dec-12 04:31N 53°23' W 002°60'0 0.0
2014-Dec-12 03:31N 53°23' W 002°60'0 0.4
2014-Dec-12 02:33N 53°23' W 003°00'4 3.8
2014-Dec-12 01:33N 53°27' W 003°01'8 8.2
2014-Dec-12 00:33N 53°31' W 003°13'1 1.1
2014-Dec-11 23:22N 53°31' W 003°15'7 8.2
2014-Dec-11 22:33N 53°29' W 003°05'7 6.9
2014-Dec-11 21:31N 53°23' W 003°00'0 0.0
2014-Dec-11 20:31N 53°23' W 003°00'0 0.0
2014-Dec-11 19:31N 53°23' W 003°00'0 0.0
2014-Dec-11 18:31N 53°23' W 003°00'0 0.0
2014-Dec-11 17:31N 53°23' W 003°00'0 0.0
2014-Dec-11 16:31N 53°23' W 003°00'0 0.0
2014-Dec-11 15:31N 53°23' W 003°00'0 0.0
2014-Dec-11 14:31N 53°23' W 003°00'0 0.0
2014-Dec-11 13:31N 53°23' W 003°00'0 0.1
2014-Dec-11 12:29N 53°23' W 002°60'0 0.0
2014-Dec-11 11:29N 53°23' W 002°60'0 0.0
2014-Dec-11 10:29N 53°23' W 002°60'0 0.0
2014-Dec-11 09:29N 53°23' W 002°60'2 1.7
2014-Dec-11 08:32N 53°24' W 003°00'2 1.7
2014-Dec-11 07:32N 53°23' W 002°60'0 0.0
2014-Dec-11 06:32N 53°23' W 002°60'0 0.0
2014-Dec-11 05:32N 53°23' W 002°60'0 0.0
2014-Dec-11 04:32N 53°23' W 002°60'0 0.0
2014-Dec-11 03:31N 53°23' W 002°60'0 0.0
2014-Dec-11 02:31N 53°23' W 002°60'0 0.0
2014-Dec-11 01:31N 53°23' W 002°60'0 0.0
2014-Dec-11 00:31N 53°23' W 002°60'0 0.0
2014-Dec-10 23:31N 53°23' W 002°60'0 0.0
2014-Dec-10 22:31N 53°23' W 002°60'0 0.0
2014-Dec-10 21:25N 53°23' W 002°60'0 0.0
2014-Dec-10 20:31N 53°23' W 002°60'0 0.0
2014-Dec-10 19:31N 53°23' W 002°60'0 0.0
2014-Dec-10 18:31N 53°23' W 002°60'0 0.0
2014-Dec-10 17:31N 53°23' W 002°60'0 0.0
2014-Dec-10 16:31N 53°23' W 002°60'0 0.0
2014-Dec-10 15:31N 53°23' W 002°60'0 0.0
2014-Dec-10 14:31N 53°23' W 002°60'0 0.0
2014-Dec-10 13:31N 53°23' W 002°60'0 0.0
2014-Dec-10 12:31N 53°23' W 002°60'0 0.0
2014-Dec-10 11:31N 53°23' W 002°60'0 0.0
2014-Dec-10 10:31N 53°23' W 002°60'0 0.0
2014-Dec-10 09:25N 53°23' W 002°60'0 0.0
2014-Dec-10 08:31N 53°23' W 002°60'0 0.0
2014-Dec-10 07:31N 53°23' W 002°60'0 0.0
2014-Dec-10 06:31N 53°23' W 002°60'0 0.0
2014-Dec-10 05:31N 53°23' W 002°60'0 0.0
2014-Dec-10 04:31N 53°23' W 002°60'0 0.0
2014-Dec-10 03:31N 53°23' W 002°60'0 0.0
2014-Dec-10 02:31N 53°23' W 002°60'0 0.2
2014-Dec-10 01:33N 53°23' W 002°60'1 1.4
2014-Dec-10 00:34N 53°24' W 003°00'9 9.0
2014-Dec-09 23:33N 53°32' W 003°09'1 0.7
2014-Dec-09 22:33N 53°32' W 003°10'9 8.9
2014-Dec-09 21:34N 53°25' W 003°01'2 1.7
2014-Dec-09 20:25N 53°23' W 003°00'0 0.0
2014-Dec-09 19:31N 53°23' W 003°00'0 0.0
2014-Dec-09 18:31N 53°23' W 003°00'0 0.0
2014-Dec-09 17:25N 53°23' W 003°00'0 0.0
2014-Dec-09 16:31N 53°23' W 003°00'0 0.0
2014-Dec-09 15:31N 53°23' W 003°00'0 0.0
2014-Dec-09 14:31N 53°23' W 003°00'0 0.0
2014-Dec-09 13:31N 53°23' W 003°00'0 0.0
2014-Dec-09 12:31N 53°23' W 003°00'4 4.1
2014-Dec-09 11:32N 53°27' W 003°01'4 4.2
2014-Dec-09 10:33N 53°23' W 003°00'0 0.0
2014-Dec-09 09:33N 53°23' W 003°00'0 0.0
2014-Dec-09 08:33N 53°23' W 003°00'0 0.0
2014-Dec-09 07:27N 53°23' W 003°00'0 0.0
2014-Dec-09 06:33N 53°23' W 003°00'0 0.0
2014-Dec-09 05:33N 53°23' W 003°00'0 0.0
2014-Dec-09 04:33N 53°23' W 003°00'0 0.0
2014-Dec-09 03:33N 53°23' W 003°00'0 0.0
2014-Dec-09 02:33N 53°23' W 003°00'0 0.0
2014-Dec-09 01:33N 53°23' W 003°00'0 0.0
2014-Dec-09 00:27N 53°23' W 003°00'0 0.0
2014-Dec-08 23:33N 53°23' W 003°00'0 0.0
2014-Dec-08 22:33N 53°23' W 003°00'0 0.0
2014-Dec-08 21:33N 53°23' W 003°00'0 0.0
2014-Dec-08 20:33N 53°23' W 003°00'0 0.0
2014-Dec-08 19:33N 53°23' W 003°00'0 0.0
2014-Dec-08 18:33N 53°23' W 003°00'0 0.0
2014-Dec-08 17:27N 53°23' W 003°00'0 0.0
2014-Dec-08 16:33N 53°23' W 003°00'0 0.0
2014-Dec-08 15:33N 53°23' W 003°00'0 0.0
2014-Dec-08 14:33N 53°23' W 003°00'0 0.0
2014-Dec-08 13:33N 53°23' W 003°00'0 0.0
2014-Dec-08 12:33N 53°23' W 003°00'0 0.0
2014-Dec-08 11:32N 53°23' W 003°00'0 0.0
2014-Dec-08 10:32N 53°23' W 003°00'0 0.0
2014-Dec-08 09:32N 53°23' W 003°00'0 0.0
2014-Dec-08 08:32N 53°23' W 003°00'0 0.0
2014-Dec-08 07:30N 53°23' W 002°60'0 0.0
2014-Dec-08 06:30N 53°23' W 002°60'0 0.0
2014-Dec-08 05:30N 53°23' W 002°60'0 0.0
2014-Dec-08 04:24N 53°23' W 002°60'0 0.0
2014-Dec-08 03:30N 53°23' W 002°60'0 0.0
2014-Dec-08 02:30N 53°23' W 002°60'0 0.0
2014-Dec-08 01:30N 53°23' W 002°60'0 0.0
2014-Dec-08 00:30N 53°23' W 002°60'  
Track history (hours):
 
Tides and Currents Weather Stations Pressure Air Temp Water Temp Dewpoint Dewpoint Depression Visibility Wind Speed Wind Dir Waves Ship Positions

Svitzer Stanlow

Last reported at 2014-Dec-18 00:28 UTC. Time now 2014-Dec-18 00:56 UTC.
Position N 53°25' W 003°00'.

Length 39 m.

Type: Tug. MMSI: 235010620.

Date/timePositionNaut miles runAvg speedWind from/ knotsBaromVisibWave heightAir tempDewpointWater temp
2014-Dec-18 00:28N 53°25' W 003°00'0 0.0
2014-Dec-17 23:28N 53°25' W 003°00'0 0.0
2014-Dec-17 22:28N 53°25' W 003°00'0 0.0
2014-Dec-17 21:28N 53°25' W 003°00'0 0.0
2014-Dec-17 20:28N 53°25' W 003°00'0 0.0
2014-Dec-17 19:28N 53°25' W 003°00'0 0.0
2014-Dec-17 18:22N 53°25' W 003°00'0 0.0
2014-Dec-17 17:28N 53°25' W 003°00'0 0.0
2014-Dec-17 16:34N 53°25' W 003°00'0 0.0
2014-Dec-17 15:33N 53°25' W 003°00'0 0.0
2014-Dec-17 14:27N 53°25' W 003°00'0 0.0
2014-Dec-17 13:33N 53°25' W 003°00'0 0.0
2014-Dec-17 12:27N 53°25' W 003°00'0 0.0
2014-Dec-17 11:33N 53°25' W 003°00'0 0.0
2014-Dec-17 10:33N 53°25' W 003°00'0 0.0
2014-Dec-17 09:33N 53°25' W 003°00'0 0.0
2014-Dec-17 08:33N 53°25' W 003°00'0 0.0
2014-Dec-17 07:33N 53°25' W 003°00'0 0.0
2014-Dec-17 06:21N 53°25' W 003°00'0 0.0
2014-Dec-17 05:33N 53°25' W 003°00'0 0.0
2014-Dec-17 04:33N 53°25' W 003°00'0 0.0
2014-Dec-17 03:33N 53°25' W 003°00'0 0.0
2014-Dec-17 02:33N 53°25' W 003°00'0 0.0
2014-Dec-17 01:15N 53°25' W 003°00'0 0.0
2014-Dec-17 00:33N 53°25' W 003°00'0 0.0
2014-Dec-16 23:33N 53°25' W 003°00'0 0.0
2014-Dec-16 22:33N 53°25' W 003°00'0 0.0
2014-Dec-16 21:33N 53°25' W 003°00'0 0.0
2014-Dec-16 20:33N 53°25' W 003°00'0 0.0
2014-Dec-16 19:33N 53°25' W 003°00'0 0.0
2014-Dec-16 18:33N 53°25' W 003°00'0 0.0
2014-Dec-16 17:33N 53°25' W 003°00'0 0.0
2014-Dec-16 16:27N 53°25' W 003°00'0 0.0
2014-Dec-16 15:33N 53°25' W 003°00'0 0.0
2014-Dec-16 14:27N 53°25' W 003°00'0 0.0
2014-Dec-16 13:33N 53°25' W 003°00'0 0.0
2014-Dec-16 12:33N 53°25' W 003°00'0 0.0
2014-Dec-16 11:33N 53°25' W 003°00'0 0.0
2014-Dec-16 10:33N 53°25' W 003°00'0 0.0
2014-Dec-16 09:33N 53°25' W 003°00'0 0.0
2014-Dec-16 08:27N 53°25' W 003°00'0 0.0
2014-Dec-16 07:33N 53°25' W 003°00'0 0.0
2014-Dec-16 06:33N 53°25' W 003°00'0 0.0
2014-Dec-16 05:33N 53°25' W 003°00'0 0.0
2014-Dec-16 04:33N 53°25' W 003°00'0 0.0
2014-Dec-16 03:27N 53°25' W 003°00'0 0.0
2014-Dec-16 02:15N 53°25' W 003°00'0 0.0
2014-Dec-15 23:32N 53°25' W 003°00'0 0.0
2014-Dec-15 22:26N 53°25' W 003°00'0 0.0
2014-Dec-15 21:32N 53°25' W 003°00'0 0.0
2014-Dec-15 20:32N 53°25' W 003°00'0 0.0
2014-Dec-15 19:32N 53°25' W 003°00'0 0.0
2014-Dec-15 18:32N 53°25' W 003°00'0 0.0
2014-Dec-15 17:32N 53°25' W 003°00'0 0.0
2014-Dec-15 16:32N 53°25' W 003°00'0 0.0
2014-Dec-15 15:32N 53°25' W 003°00'0 0.0
2014-Dec-15 14:32N 53°25' W 003°00'0 0.0
2014-Dec-15 13:32N 53°25' W 003°00'0 0.0
2014-Dec-15 12:32N 53°25' W 003°00'0 0.0
2014-Dec-15 11:32N 53°25' W 003°00'0 0.0
2014-Dec-15 10:32N 53°25' W 003°00'0 0.0
2014-Dec-15 09:32N 53°25' W 003°00'0 0.0
2014-Dec-15 08:32N 53°25' W 003°00'0 0.0
2014-Dec-15 07:32N 53°25' W 003°00'2 1.7
2014-Dec-15 06:31N 53°27' W 003°01'0 0.1
2014-Dec-15 05:31N 53°27' W 003°01'0 0.2
2014-Dec-15 04:31N 53°27' W 003°01'3 2.7
2014-Dec-15 03:33N 53°29' W 003°04'2 2.3
2014-Dec-15 02:29N 53°27' W 003°01'2 1.7
2014-Dec-15 01:33N 53°25' W 003°00'0 0.0
2014-Dec-15 00:33N 53°25' W 003°00'0 0.0
2014-Dec-14 23:27N 53°25' W 003°00'0 0.0
2014-Dec-14 22:33N 53°25' W 003°00'0 0.0
2014-Dec-14 21:21N 53°25' W 003°00'0 0.0
2014-Dec-14 20:33N 53°25' W 003°00'0 0.0
2014-Dec-14 19:33N 53°25' W 003°00'0 0.0
2014-Dec-14 18:33N 53°25' W 003°00'1 1.0
2014-Dec-14 17:33N 53°26' W 003°00'1 1.1
2014-Dec-14 16:33N 53°27' W 003°01'0 0.3
2014-Dec-14 15:31N 53°27' W 003°01'2 1.8
2014-Dec-14 14:30N 53°25' W 003°00'0 0.0
2014-Dec-14 13:30N 53°25' W 003°00'0 0.0
2014-Dec-14 12:30N 53°25' W 003°00'0 0.0
2014-Dec-14 11:30N 53°25' W 003°00'0 0.0
2014-Dec-14 10:30N 53°25' W 003°00'0 0.0
2014-Dec-14 09:30N 53°25' W 003°00'0 0.0
2014-Dec-14 08:30N 53°25' W 003°00'0 0.0
2014-Dec-14 07:30N 53°25' W 003°00'0 0.0
2014-Dec-14 06:30N 53°25' W 003°00'0 0.0
2014-Dec-14 05:24N 53°25' W 003°00'0 0.0
2014-Dec-14 04:30N 53°25' W 003°00'0 0.0
2014-Dec-14 03:30N 53°25' W 003°00'0 0.0
2014-Dec-14 02:30N 53°25' W 003°00'0 0.0
2014-Dec-14 01:30N 53°25' W 003°00'0 0.0
2014-Dec-14 00:30N 53°25' W 003°00'0 0.0
2014-Dec-13 23:24N 53°25' W 003°00'0 0.0
2014-Dec-13 22:30N 53°25' W 003°00'0 0.0
2014-Dec-13 21:18N 53°25' W 003°00'0 0.0
2014-Dec-13 20:29N 53°25' W 003°00'0 0.0
2014-Dec-13 19:29N 53°25' W 003°00'0 0.0
2014-Dec-13 18:29N 53°25' W 003°00'0 0.0
2014-Dec-13 17:29N 53°25' W 003°00'0 0.0
2014-Dec-13 16:29N 53°25' W 003°00'0 0.0
2014-Dec-13 15:29N 53°25' W 003°00'0 0.0
2014-Dec-13 14:29N 53°25' W 003°00'0 0.0
2014-Dec-13 13:29N 53°25' W 003°00'1 1.0
2014-Dec-13 12:30N 53°26' W 003°01'2 1.9
2014-Dec-13 11:33N 53°25' W 003°00'2 1.9
2014-Dec-13 10:30N 53°23' W 002°60'0 0.1
2014-Dec-13 09:29N 53°23' W 002°60'0 0.0
2014-Dec-13 08:23N 53°23' W 002°60'0 0.0
2014-Dec-13 07:29N 53°23' W 002°60'0 0.0
2014-Dec-13 06:29N 53°23' W 002°60'0 0.0
2014-Dec-13 05:29N 53°23' W 002°60'0 0.0
2014-Dec-13 04:29N 53°23' W 002°60'0 0.0
2014-Dec-13 03:29N 53°23' W 002°60'0 0.0
2014-Dec-13 02:29N 53°23' W 002°60'0 0.0
2014-Dec-13 01:29N 53°23' W 002°60'0 0.0
2014-Dec-13 00:29N 53°23' W 002°60'0 0.0
2014-Dec-12 23:29N 53°23' W 002°60'0 0.1
2014-Dec-12 22:32N 53°23' W 002°60'0 0.0
2014-Dec-12 21:32N 53°23' W 002°60'0 0.0
2014-Dec-12 20:32N 53°23' W 002°60'0 0.0
2014-Dec-12 19:32N 53°23' W 002°60'0 0.0
2014-Dec-12 18:32N 53°23' W 002°60'0 0.0
2014-Dec-12 17:32N 53°23' W 002°60'0 0.0
2014-Dec-12 16:32N 53°23' W 002°60'0 0.0
2014-Dec-12 15:32N 53°23' W 002°60'0 0.0
2014-Dec-12 14:32N 53°23' W 002°60'0 0.0
2014-Dec-12 13:32N 53°23' W 002°60'0 0.0
2014-Dec-12 12:32N 53°23' W 002°60'0 0.0
2014-Dec-12 11:32N 53°23' W 002°60'0 0.1
2014-Dec-12 10:26N 53°23' W 002°60'0 0.1
2014-Dec-12 09:32N 53°23' W 002°60'0 0.0
2014-Dec-12 08:32N 53°23' W 002°60'0 0.1
2014-Dec-12 07:31N 53°23' W 002°60'0 0.0
2014-Dec-12 06:31N 53°23' W 002°60'0 0.0
2014-Dec-12 05:31N 53°23' W 002°60'0 0.0
2014-Dec-12 04:31N 53°23' W 002°60'0 0.0
2014-Dec-12 03:31N 53°23' W 002°60'0 0.4
2014-Dec-12 02:33N 53°23' W 003°00'4 3.8
2014-Dec-12 01:33N 53°27' W 003°01'8 8.2
2014-Dec-12 00:33N 53°31' W 003°13'1 1.1
2014-Dec-11 23:22N 53°31' W 003°15'7 8.2
2014-Dec-11 22:33N 53°29' W 003°05'7 6.9
2014-Dec-11 21:31N 53°23' W 003°00'0 0.0
2014-Dec-11 20:31N 53°23' W 003°00'0 0.0
2014-Dec-11 19:31N 53°23' W 003°00'0 0.0
2014-Dec-11 18:31N 53°23' W 003°00'0 0.0
2014-Dec-11 17:31N 53°23' W 003°00'0 0.0
2014-Dec-11 16:31N 53°23' W 003°00'0 0.0
2014-Dec-11 15:31N 53°23' W 003°00'0 0.0
2014-Dec-11 14:31N 53°23' W 003°00'0 0.0
2014-Dec-11 13:31N 53°23' W 003°00'0 0.1
2014-Dec-11 12:29N 53°23' W 002°60'0 0.0
2014-Dec-11 11:29N 53°23' W 002°60'0 0.0
2014-Dec-11 10:29N 53°23' W 002°60'0 0.0
2014-Dec-11 09:29N 53°23' W 002°60'2 1.7
2014-Dec-11 08:32N 53°24' W 003°00'2 1.7
2014-Dec-11 07:32N 53°23' W 002°60'0 0.0
2014-Dec-11 06:32N 53°23' W 002°60'0 0.0
2014-Dec-11 05:32N 53°23' W 002°60'0 0.0
2014-Dec-11 04:32N 53°23' W 002°60'0 0.0
2014-Dec-11 03:31N 53°23' W 002°60'0 0.0
2014-Dec-11 02:31N 53°23' W 002°60'0 0.0
2014-Dec-11 01:31N 53°23' W 002°60'0 0.0
2014-Dec-11 00:31N 53°23' W 002°60'0 0.0
2014-Dec-10 23:31N 53°23' W 002°60'0 0.0
2014-Dec-10 22:31N 53°23' W 002°60'0 0.0
2014-Dec-10 21:25N 53°23' W 002°60'0 0.0
2014-Dec-10 20:31N 53°23' W 002°60'0 0.0
2014-Dec-10 19:31N 53°23' W 002°60'0 0.0
2014-Dec-10 18:31N 53°23' W 002°60'0 0.0
2014-Dec-10 17:31N 53°23' W 002°60'0 0.0
2014-Dec-10 16:31N 53°23' W 002°60'0 0.0
2014-Dec-10 15:31N 53°23' W 002°60'0 0.0
2014-Dec-10 14:31N 53°23' W 002°60'0 0.0
2014-Dec-10 13:31N 53°23' W 002°60'0 0.0
2014-Dec-10 12:31N 53°23' W 002°60'0 0.0
2014-Dec-10 11:31N 53°23' W 002°60'0 0.0
2014-Dec-10 10:31N 53°23' W 002°60'0 0.0
2014-Dec-10 09:25N 53°23' W 002°60'0 0.0
2014-Dec-10 08:31N 53°23' W 002°60'0 0.0
2014-Dec-10 07:31N 53°23' W 002°60'0 0.0
2014-Dec-10 06:31N 53°23' W 002°60'0 0.0
2014-Dec-10 05:31N 53°23' W 002°60'0 0.0
2014-Dec-10 04:31N 53°23' W 002°60'0 0.0
2014-Dec-10 03:31N 53°23' W 002°60'0 0.0
2014-Dec-10 02:31N 53°23' W 002°60'0 0.2
2014-Dec-10 01:33N 53°23' W 002°60'1 1.4
2014-Dec-10 00:34N 53°24' W 003°00'9 9.0
2014-Dec-09 23:33N 53°32' W 003°09'1 0.7
2014-Dec-09 22:33N 53°32' W 003°10'9 8.9
2014-Dec-09 21:34N 53°25' W 003°01'2 1.7
2014-Dec-09 20:25N 53°23' W 003°00'0 0.0
2014-Dec-09 19:31N 53°23' W 003°00'0 0.0
2014-Dec-09 18:31N 53°23' W 003°00'0 0.0
2014-Dec-09 17:25N 53°23' W 003°00'0 0.0
2014-Dec-09 16:31N 53°23' W 003°00'0 0.0
2014-Dec-09 15:31N 53°23' W 003°00'0 0.0
2014-Dec-09 14:31N 53°23' W 003°00'0 0.0
2014-Dec-09 13:31N 53°23' W 003°00'0 0.0
2014-Dec-09 12:31N 53°23' W 003°00'4 4.1
2014-Dec-09 11:32N 53°27' W 003°01'4 4.2
2014-Dec-09 10:33N 53°23' W 003°00'0 0.0
2014-Dec-09 09:33N 53°23' W 003°00'0 0.0
2014-Dec-09 08:33N 53°23' W 003°00'0 0.0
2014-Dec-09 07:27N 53°23' W 003°00'0 0.0
2014-Dec-09 06:33N 53°23' W 003°00'0 0.0
2014-Dec-09 05:33N 53°23' W 003°00'0 0.0
2014-Dec-09 04:33N 53°23' W 003°00'0 0.0
2014-Dec-09 03:33N 53°23' W 003°00'0 0.0
2014-Dec-09 02:33N 53°23' W 003°00'0 0.0
2014-Dec-09 01:33N 53°23' W 003°00'0 0.0
2014-Dec-09 00:27N 53°23' W 003°00'0 0.0
2014-Dec-08 23:33N 53°23' W 003°00'0 0.0
2014-Dec-08 22:33N 53°23' W 003°00'0 0.0
2014-Dec-08 21:33N 53°23' W 003°00'0 0.0
2014-Dec-08 20:33N 53°23' W 003°00'0 0.0
2014-Dec-08 19:33N 53°23' W 003°00'0 0.0
2014-Dec-08 18:33N 53°23' W 003°00'0 0.0
2014-Dec-08 17:27N 53°23' W 003°00'0 0.0
2014-Dec-08 16:33N 53°23' W 003°00'0 0.0
2014-Dec-08 15:33N 53°23' W 003°00'0 0.0
2014-Dec-08 14:33N 53°23' W 003°00'0 0.0
2014-Dec-08 13:33N 53°23' W 003°00'0 0.0
2014-Dec-08 12:33N 53°23' W 003°00'0 0.0
2014-Dec-08 11:32N 53°23' W 003°00'0 0.0
2014-Dec-08 10:32N 53°23' W 003°00'0 0.0
2014-Dec-08 09:32N 53°23' W 003°00'0 0.0
2014-Dec-08 08:32N 53°23' W 003°00'0 0.0
2014-Dec-08 07:30N 53°23' W 002°60'0 0.0
2014-Dec-08 06:30N 53°23' W 002°60'0 0.0
2014-Dec-08 05:30N 53°23' W 002°60'0 0.0
2014-Dec-08 04:24N 53°23' W 002°60'0 0.0
2014-Dec-08 03:30N 53°23' W 002°60'0 0.0
2014-Dec-08 02:30N 53°23' W 002°60'0 0.0
2014-Dec-08 01:30N 53°23' W 002°60'0 0.0
2014-Dec-08 00:30N 53°23' W 002°60'  

Dump ship's entire track history